sensor_id;sensor_type;location;lat;lon;timestamp;temperature;humidity
80238;DHT22;69544;42.138;24.742;2023-05-29T00:00:19;23.20;45.40
80238;DHT22;69544;42.138;24.742;2023-05-29T00:02:46;23.20;45.40
80238;DHT22;69544;42.138;24.742;2023-05-29T00:05:13;23.20;45.50
80238;DHT22;69544;42.138;24.742;2023-05-29T00:07:39;23.20;45.40
80238;DHT22;69544;42.138;24.742;2023-05-29T00:10:06;23.20;45.40
80238;DHT22;69544;42.138;24.742;2023-05-29T00:12:32;23.20;45.40
80238;DHT22;69544;42.138;24.742;2023-05-29T00:14:58;23.20;45.40
80238;DHT22;69544;42.138;24.742;2023-05-29T00:17:25;23.20;45.40
80238;DHT22;69544;42.138;24.742;2023-05-29T00:19:50;23.20;45.50
80238;DHT22;69544;42.138;24.742;2023-05-29T00:22:16;23.20;45.50
80238;DHT22;69544;42.138;24.742;2023-05-29T00:24:42;23.20;45.40
80238;DHT22;69544;42.138;24.742;2023-05-29T00:27:10;23.20;45.50
80238;DHT22;69544;42.138;24.742;2023-05-29T00:29:38;23.20;45.50
80238;DHT22;69544;42.138;24.742;2023-05-29T00:32:04;23.20;45.50
80238;DHT22;69544;42.138;24.742;2023-05-29T00:34:31;23.20;45.50
80238;DHT22;69544;42.138;24.742;2023-05-29T00:36:57;23.20;45.60
80238;DHT22;69544;42.138;24.742;2023-05-29T00:39:23;23.20;45.50
80238;DHT22;69544;42.138;24.742;2023-05-29T00:41:48;23.20;45.50
80238;DHT22;69544;42.138;24.742;2023-05-29T00:44:18;23.20;45.50
80238;DHT22;69544;42.138;24.742;2023-05-29T00:46:48;23.20;45.50
80238;DHT22;69544;42.138;24.742;2023-05-29T00:49:15;23.20;45.60
80238;DHT22;69544;42.138;24.742;2023-05-29T00:51:42;23.20;45.60
80238;DHT22;69544;42.138;24.742;2023-05-29T00:54:14;23.20;45.60
80238;DHT22;69544;42.138;24.742;2023-05-29T00:56:43;23.20;45.60
80238;DHT22;69544;42.138;24.742;2023-05-29T00:59:12;23.20;45.60
80238;DHT22;69544;42.138;24.742;2023-05-29T01:01:38;23.20;45.60
80238;DHT22;69544;42.138;24.742;2023-05-29T01:04:05;23.20;45.60
80238;DHT22;69544;42.138;24.742;2023-05-29T01:06:34;23.20;45.60
80238;DHT22;69544;42.138;24.742;2023-05-29T01:09:00;23.20;45.60
80238;DHT22;69544;42.138;24.742;2023-05-29T01:11:53;23.20;45.60
80238;DHT22;69544;42.138;24.742;2023-05-29T01:20:27;23.20;45.60
80238;DHT22;69544;42.138;24.742;2023-05-29T01:28:29;23.20;45.60
80238;DHT22;69544;42.138;24.742;2023-05-29T01:30:57;23.10;45.60
80238;DHT22;69544;42.138;24.742;2023-05-29T01:33:26;23.20;45.70
80238;DHT22;69544;42.138;24.742;2023-05-29T01:35:52;23.20;46.80
80238;DHT22;69544;42.138;24.742;2023-05-29T01:38:17;23.20;45.70
80238;DHT22;69544;42.138;24.742;2023-05-29T01:40:44;23.20;45.80
80238;DHT22;69544;42.138;24.742;2023-05-29T01:43:10;23.10;46.70
80238;DHT22;69544;42.138;24.742;2023-05-29T01:45:36;23.20;45.70
80238;DHT22;69544;42.138;24.742;2023-05-29T01:48:02;23.20;45.80
80238;DHT22;69544;42.138;24.742;2023-05-29T01:50:28;23.20;45.70
80238;DHT22;69544;42.138;24.742;2023-05-29T01:52:54;23.10;45.60
80238;DHT22;69544;42.138;24.742;2023-05-29T01:55:20;23.20;45.70
80238;DHT22;69544;42.138;24.742;2023-05-29T01:57:46;23.20;45.80
80238;DHT22;69544;42.138;24.742;2023-05-29T02:00:13;23.20;45.70
80238;DHT22;69544;42.138;24.742;2023-05-29T02:02:41;23.10;45.70
80238;DHT22;69544;42.138;24.742;2023-05-29T02:05:08;23.20;45.70
80238;DHT22;69544;42.138;24.742;2023-05-29T02:07:37;23.10;45.70
80238;DHT22;69544;42.138;24.742;2023-05-29T02:10:06;23.10;45.70
80238;DHT22;69544;42.138;24.742;2023-05-29T02:12:32;23.20;45.70
80238;DHT22;69544;42.138;24.742;2023-05-29T02:14:57;23.10;46.00
80238;DHT22;69544;42.138;24.742;2023-05-29T02:17:23;23.10;46.80
80238;DHT22;69544;42.138;24.742;2023-05-29T02:19:50;23.10;45.70
80238;DHT22;69544;42.138;24.742;2023-05-29T02:22:17;23.10;45.70
80238;DHT22;69544;42.138;24.742;2023-05-29T02:24:43;23.10;45.70
80238;DHT22;69544;42.138;24.742;2023-05-29T02:27:09;23.10;45.70
80238;DHT22;69544;42.138;24.742;2023-05-29T02:29:35;23.10;45.80
80238;DHT22;69544;42.138;24.742;2023-05-29T02:32:00;23.10;45.70
80238;DHT22;69544;42.138;24.742;2023-05-29T02:34:26;23.10;45.70
80238;DHT22;69544;42.138;24.742;2023-05-29T02:36:52;23.10;45.70
80238;DHT22;69544;42.138;24.742;2023-05-29T02:39:18;23.10;45.70
80238;DHT22;69544;42.138;24.742;2023-05-29T02:41:44;23.10;45.80
80238;DHT22;69544;42.138;24.742;2023-05-29T02:44:12;23.10;45.70
80238;DHT22;69544;42.138;24.742;2023-05-29T02:46:38;23.10;45.70
80238;DHT22;69544;42.138;24.742;2023-05-29T02:49:03;23.10;45.80
80238;DHT22;69544;42.138;24.742;2023-05-29T02:51:29;23.10;45.80
80238;DHT22;69544;42.138;24.742;2023-05-29T02:53:57;23.10;45.70
80238;DHT22;69544;42.138;24.742;2023-05-29T02:56:22;23.10;45.80
80238;DHT22;69544;42.138;24.742;2023-05-29T02:58:51;23.10;45.70
80238;DHT22;69544;42.138;24.742;2023-05-29T03:01:17;23.10;45.70
80238;DHT22;69544;42.138;24.742;2023-05-29T03:03:43;23.10;45.80
80238;DHT22;69544;42.138;24.742;2023-05-29T03:06:08;23.10;45.80
80238;DHT22;69544;42.138;24.742;2023-05-29T03:08:35;23.10;45.70
80238;DHT22;69544;42.138;24.742;2023-05-29T03:11:07;23.10;45.70
80238;DHT22;69544;42.138;24.742;2023-05-29T03:13:36;23.10;45.70
80238;DHT22;69544;42.138;24.742;2023-05-29T03:16:05;23.10;45.70
80238;DHT22;69544;42.138;24.742;2023-05-29T03:18:30;23.10;45.80
80238;DHT22;69544;42.138;24.742;2023-05-29T03:20:56;23.10;45.80
80238;DHT22;69544;42.138;24.742;2023-05-29T03:23:22;23.10;45.70
80238;DHT22;69544;42.138;24.742;2023-05-29T03:25:48;23.00;45.70
80238;DHT22;69544;42.138;24.742;2023-05-29T03:28:13;23.10;45.70
80238;DHT22;69544;42.138;24.742;2023-05-29T03:30:39;23.10;45.70
80238;DHT22;69544;42.138;24.742;2023-05-29T03:33:05;23.10;45.80
80238;DHT22;69544;42.138;24.742;2023-05-29T03:35:31;23.10;45.70
80238;DHT22;69544;42.138;24.742;2023-05-29T03:37:56;23.00;45.70
80238;DHT22;69544;42.138;24.742;2023-05-29T03:40:22;23.10;45.80
80238;DHT22;69544;42.138;24.742;2023-05-29T03:42:48;23.00;45.80
80238;DHT22;69544;42.138;24.742;2023-05-29T03:45:14;23.10;45.80
80238;DHT22;69544;42.138;24.742;2023-05-29T03:47:39;23.10;45.80
80238;DHT22;69544;42.138;24.742;2023-05-29T03:50:05;23.10;45.80
80238;DHT22;69544;42.138;24.742;2023-05-29T03:52:31;23.10;45.80
80238;DHT22;69544;42.138;24.742;2023-05-29T03:54:57;23.00;45.70
80238;DHT22;69544;42.138;24.742;2023-05-29T03:57:23;23.00;45.70
80238;DHT22;69544;42.138;24.742;2023-05-29T03:59:48;23.10;45.80
80238;DHT22;69544;42.138;24.742;2023-05-29T04:02:14;23.00;45.70
80238;DHT22;69544;42.138;24.742;2023-05-29T04:04:40;23.10;45.80
80238;DHT22;69544;42.138;24.742;2023-05-29T04:07:06;23.00;45.70
80238;DHT22;69544;42.138;24.742;2023-05-29T04:09:33;23.00;45.70
80238;DHT22;69544;42.138;24.742;2023-05-29T04:11:59;23.00;45.80
80238;DHT22;69544;42.138;24.742;2023-05-29T04:14:27;23.00;45.80
80238;DHT22;69544;42.138;24.742;2023-05-29T04:16:53;23.00;45.70
80238;DHT22;69544;42.138;24.742;2023-05-29T04:19:19;23.00;45.70
80238;DHT22;69544;42.138;24.742;2023-05-29T04:21:46;23.00;46.80
80238;DHT22;69544;42.138;24.742;2023-05-29T04:24:16;23.00;45.80
80238;DHT22;69544;42.138;24.742;2023-05-29T04:26:41;23.00;45.70
80238;DHT22;69544;42.138;24.742;2023-05-29T04:29:08;23.00;45.80
80238;DHT22;69544;42.138;24.742;2023-05-29T04:31:34;23.00;45.70
80238;DHT22;69544;42.138;24.742;2023-05-29T04:34:02;23.00;45.70
80238;DHT22;69544;42.138;24.742;2023-05-29T04:36:30;23.00;45.70
80238;DHT22;69544;42.138;24.742;2023-05-29T04:38:58;23.00;45.70
80238;DHT22;69544;42.138;24.742;2023-05-29T04:41:25;22.90;48.80
80238;DHT22;69544;42.138;24.742;2023-05-29T04:43:55;22.80;48.20
80238;DHT22;69544;42.138;24.742;2023-05-29T04:46:23;22.80;49.20
80238;DHT22;69544;42.138;24.742;2023-05-29T04:48:50;22.80;49.40
80238;DHT22;69544;42.138;24.742;2023-05-29T04:51:19;22.80;49.60
80238;DHT22;69544;42.138;24.742;2023-05-29T04:53:45;22.80;50.10
80238;DHT22;69544;42.138;24.742;2023-05-29T04:56:12;22.80;50.10
80238;DHT22;69544;42.138;24.742;2023-05-29T04:58:38;22.80;50.00
80238;DHT22;69544;42.138;24.742;2023-05-29T05:01:04;22.70;50.10
80238;DHT22;69544;42.138;24.742;2023-05-29T05:03:30;22.70;50.30
80238;DHT22;69544;42.138;24.742;2023-05-29T05:05:56;22.70;50.20
80238;DHT22;69544;42.138;24.742;2023-05-29T05:08:23;22.70;50.60
80238;DHT22;69544;42.138;24.742;2023-05-29T05:10:48;22.70;50.80
80238;DHT22;69544;42.138;24.742;2023-05-29T05:13:14;22.60;50.90
80238;DHT22;69544;42.138;24.742;2023-05-29T05:15:40;22.70;50.60
80238;DHT22;69544;42.138;24.742;2023-05-29T05:18:05;22.60;50.70
80238;DHT22;69544;42.138;24.742;2023-05-29T05:20:31;22.60;50.80
80238;DHT22;69544;42.138;24.742;2023-05-29T05:22:57;22.60;50.90
80238;DHT22;69544;42.138;24.742;2023-05-29T05:25:22;22.60;50.70
80238;DHT22;69544;42.138;24.742;2023-05-29T05:27:48;22.60;50.80
80238;DHT22;69544;42.138;24.742;2023-05-29T05:30:14;22.60;50.60
80238;DHT22;69544;42.138;24.742;2023-05-29T05:32:40;22.50;50.80
80238;DHT22;69544;42.138;24.742;2023-05-29T05:35:05;22.50;50.90
80238;DHT22;69544;42.138;24.742;2023-05-29T05:37:36;22.50;50.80
80238;DHT22;69544;42.138;24.742;2023-05-29T05:40:01;22.60;50.60
80238;DHT22;69544;42.138;24.742;2023-05-29T05:42:27;22.60;50.40
80238;DHT22;69544;42.138;24.742;2023-05-29T05:44:53;22.60;50.20
80238;DHT22;69544;42.138;24.742;2023-05-29T05:47:19;22.60;50.00
80238;DHT22;69544;42.138;24.742;2023-05-29T05:49:44;22.70;49.90
80238;DHT22;69544;42.138;24.742;2023-05-29T05:52:10;22.70;49.90
80238;DHT22;69544;42.138;24.742;2023-05-29T05:54:36;22.70;50.10
80238;DHT22;69544;42.138;24.742;2023-05-29T05:57:01;22.70;50.10
80238;DHT22;69544;42.138;24.742;2023-05-29T05:59:28;22.80;50.10
80238;DHT22;69544;42.138;24.742;2023-05-29T06:01:55;22.80;50.10
80238;DHT22;69544;42.138;24.742;2023-05-29T06:04:20;22.90;50.10
80238;DHT22;69544;42.138;24.742;2023-05-29T06:06:46;22.90;50.10
80238;DHT22;69544;42.138;24.742;2023-05-29T06:09:12;22.90;50.00
80238;DHT22;69544;42.138;24.742;2023-05-29T06:11:37;22.90;49.90
80238;DHT22;69544;42.138;24.742;2023-05-29T06:14:04;23.00;49.90
80238;DHT22;69544;42.138;24.742;2023-05-29T06:16:29;23.00;49.80
80238;DHT22;69544;42.138;24.742;2023-05-29T06:18:55;23.00;49.70
80238;DHT22;69544;42.138;24.742;2023-05-29T06:21:21;23.00;49.60
80238;DHT22;69544;42.138;24.742;2023-05-29T06:23:47;23.00;49.50
80238;DHT22;69544;42.138;24.742;2023-05-29T06:26:13;23.00;49.40
80238;DHT22;69544;42.138;24.742;2023-05-29T06:28:39;23.00;49.30
80238;DHT22;69544;42.138;24.742;2023-05-29T06:31:04;23.00;49.30
80238;DHT22;69544;42.138;24.742;2023-05-29T06:33:30;23.00;49.20
80238;DHT22;69544;42.138;24.742;2023-05-29T06:35:56;23.00;49.20
80238;DHT22;69544;42.138;24.742;2023-05-29T06:38:21;23.10;49.20
80238;DHT22;69544;42.138;24.742;2023-05-29T06:40:47;23.10;49.10
80238;DHT22;69544;42.138;24.742;2023-05-29T06:43:13;23.10;49.10
80238;DHT22;69544;42.138;24.742;2023-05-29T06:45:39;23.10;49.00
80238;DHT22;69544;42.138;24.742;2023-05-29T06:48:04;23.10;49.00
80238;DHT22;69544;42.138;24.742;2023-05-29T06:50:31;23.10;48.90
80238;DHT22;69544;42.138;24.742;2023-05-29T06:52:56;23.10;48.90
80238;DHT22;69544;42.138;24.742;2023-05-29T06:55:22;23.10;48.90
80238;DHT22;69544;42.138;24.742;2023-05-29T06:57:48;23.10;48.80
80238;DHT22;69544;42.138;24.742;2023-05-29T07:00:14;23.10;48.70
80238;DHT22;69544;42.138;24.742;2023-05-29T07:02:41;23.10;48.60
80238;DHT22;69544;42.138;24.742;2023-05-29T07:05:07;23.10;48.60
80238;DHT22;69544;42.138;24.742;2023-05-29T07:07:33;23.10;48.40
80238;DHT22;69544;42.138;24.742;2023-05-29T07:09:58;23.10;48.40
80238;DHT22;69544;42.138;24.742;2023-05-29T07:12:24;23.20;48.40
80238;DHT22;69544;42.138;24.742;2023-05-29T07:14:50;23.20;48.40
80238;DHT22;69544;42.138;24.742;2023-05-29T07:17:16;23.10;49.40
80238;DHT22;69544;42.138;24.742;2023-05-29T07:19:41;23.20;48.30
80238;DHT22;69544;42.138;24.742;2023-05-29T07:22:07;23.20;48.20
80238;DHT22;69544;42.138;24.742;2023-05-29T07:24:33;23.20;48.20
80238;DHT22;69544;42.138;24.742;2023-05-29T07:26:58;23.20;48.10
80238;DHT22;69544;42.138;24.742;2023-05-29T07:29:24;23.20;48.00
80238;DHT22;69544;42.138;24.742;2023-05-29T07:31:51;23.20;48.00
80238;DHT22;69544;42.138;24.742;2023-05-29T07:34:17;23.20;48.00
80238;DHT22;69544;42.138;24.742;2023-05-29T07:37:02;23.20;48.00
80238;DHT22;69544;42.138;24.742;2023-05-29T07:39:30;23.20;47.90
80238;DHT22;69544;42.138;24.742;2023-05-29T07:41:56;23.20;48.00
80238;DHT22;69544;42.138;24.742;2023-05-29T07:44:22;23.20;47.90
80238;DHT22;69544;42.138;24.742;2023-05-29T07:46:47;23.20;47.90
80238;DHT22;69544;42.138;24.742;2023-05-29T07:49:13;23.20;47.80
80238;DHT22;69544;42.138;24.742;2023-05-29T07:51:44;23.20;47.80
80238;DHT22;69544;42.138;24.742;2023-05-29T07:54:10;23.20;47.70
80238;DHT22;69544;42.138;24.742;2023-05-29T07:56:36;23.20;47.60
80238;DHT22;69544;42.138;24.742;2023-05-29T07:59:02;23.30;47.60
80238;DHT22;69544;42.138;24.742;2023-05-29T08:01:29;23.20;47.50
80238;DHT22;69544;42.138;24.742;2023-05-29T08:03:55;23.30;47.60
80238;DHT22;69544;42.138;24.742;2023-05-29T08:06:20;23.30;47.60
80238;DHT22;69544;42.138;24.742;2023-05-29T08:08:46;23.30;47.70
80238;DHT22;69544;42.138;24.742;2023-05-29T08:11:13;23.30;47.70
80238;DHT22;69544;42.138;24.742;2023-05-29T08:13:38;23.30;47.70
80238;DHT22;69544;42.138;24.742;2023-05-29T08:16:04;23.30;47.70
80238;DHT22;69544;42.138;24.742;2023-05-29T08:18:31;23.40;47.80
80238;DHT22;69544;42.138;24.742;2023-05-29T08:20:58;23.40;47.70
80238;DHT22;69544;42.138;24.742;2023-05-29T08:23:24;23.40;47.70
80238;DHT22;69544;42.138;24.742;2023-05-29T08:25:50;23.40;47.80
80238;DHT22;69544;42.138;24.742;2023-05-29T08:28:16;23.40;47.80
80238;DHT22;69544;42.138;24.742;2023-05-29T08:30:41;23.40;47.70
80238;DHT22;69544;42.138;24.742;2023-05-29T08:33:07;23.40;47.70
80238;DHT22;69544;42.138;24.742;2023-05-29T08:35:33;23.40;47.80
80238;DHT22;69544;42.138;24.742;2023-05-29T08:37:59;23.50;47.70
80238;DHT22;69544;42.138;24.742;2023-05-29T08:40:25;23.50;47.80
80238;DHT22;69544;42.138;24.742;2023-05-29T08:42:57;23.50;47.70
80238;DHT22;69544;42.138;24.742;2023-05-29T08:45:24;23.50;47.70
80238;DHT22;69544;42.138;24.742;2023-05-29T08:47:53;23.50;47.60
80238;DHT22;69544;42.138;24.742;2023-05-29T08:50:20;23.50;47.60
80238;DHT22;69544;42.138;24.742;2023-05-29T08:52:47;23.60;47.60
80238;DHT22;69544;42.138;24.742;2023-05-29T08:55:13;23.60;47.60
80238;DHT22;69544;42.138;24.742;2023-05-29T08:57:40;23.60;47.60
80238;DHT22;69544;42.138;24.742;2023-05-29T09:00:09;23.60;47.60
80238;DHT22;69544;42.138;24.742;2023-05-29T09:02:43;23.60;47.60
80238;DHT22;69544;42.138;24.742;2023-05-29T09:05:09;23.60;47.50
80238;DHT22;69544;42.138;24.742;2023-05-29T09:07:39;23.60;47.50
80238;DHT22;69544;42.138;24.742;2023-05-29T09:10:13;23.60;47.50
80238;DHT22;69544;42.138;24.742;2023-05-29T09:12:40;23.60;47.30
80238;DHT22;69544;42.138;24.742;2023-05-29T09:15:23;23.60;47.30
80238;DHT22;69544;42.138;24.742;2023-05-29T09:17:56;23.60;47.20
80238;DHT22;69544;42.138;24.742;2023-05-29T09:20:25;23.60;47.20
80238;DHT22;69544;42.138;24.742;2023-05-29T09:23:13;23.60;47.20
80238;DHT22;69544;42.138;24.742;2023-05-29T09:25:42;23.60;47.20
80238;DHT22;69544;42.138;24.742;2023-05-29T09:28:08;23.60;47.20
80238;DHT22;69544;42.138;24.742;2023-05-29T09:33:08;23.60;47.20
80238;DHT22;69544;42.138;24.742;2023-05-29T09:38:00;23.50;47.20
80238;DHT22;69544;42.138;24.742;2023-05-29T09:40:29;23.50;47.00
80238;DHT22;69544;42.138;24.742;2023-05-29T09:42:55;23.50;47.00
80238;DHT22;69544;42.138;24.742;2023-05-29T09:45:24;23.50;47.00
80238;DHT22;69544;42.138;24.742;2023-05-29T09:47:51;23.50;47.00
80238;DHT22;69544;42.138;24.742;2023-05-29T09:50:20;23.50;47.00
80238;DHT22;69544;42.138;24.742;2023-05-29T09:52:50;23.40;47.00
80238;DHT22;69544;42.138;24.742;2023-05-29T09:55:20;23.50;47.00
80238;DHT22;69544;42.138;24.742;2023-05-29T09:57:47;23.40;47.00
80238;DHT22;69544;42.138;24.742;2023-05-29T10:00:14;23.50;47.00
80238;DHT22;69544;42.138;24.742;2023-05-29T10:02:41;23.40;46.90
80238;DHT22;69544;42.138;24.742;2023-05-29T10:05:07;23.40;47.00
80238;DHT22;69544;42.138;24.742;2023-05-29T10:07:36;23.40;46.90
80238;DHT22;69544;42.138;24.742;2023-05-29T10:10:06;23.40;46.90
80238;DHT22;69544;42.138;24.742;2023-05-29T10:12:54;23.40;46.90
80238;DHT22;69544;42.138;24.742;2023-05-29T10:15:23;23.40;46.80
80238;DHT22;69544;42.138;24.742;2023-05-29T10:18:10;23.40;46.80
80238;DHT22;69544;42.138;24.742;2023-05-29T10:20:38;23.50;46.80
80238;DHT22;69544;42.138;24.742;2023-05-29T10:23:06;23.50;46.80
80238;DHT22;69544;42.138;24.742;2023-05-29T10:25:33;23.50;46.80
80238;DHT22;69544;42.138;24.742;2023-05-29T10:28:01;23.50;46.70
80238;DHT22;69544;42.138;24.742;2023-05-29T10:36:13;23.50;46.60
80238;DHT22;69544;42.138;24.742;2023-05-29T10:38:45;23.50;46.50
80238;DHT22;69544;42.138;24.742;2023-05-29T10:41:28;23.50;46.50
80238;DHT22;69544;42.138;24.742;2023-05-29T10:43:58;23.60;46.40
80238;DHT22;69544;42.138;24.742;2023-05-29T10:49:18;23.60;46.30
80238;DHT22;69544;42.138;24.742;2023-05-29T10:51:44;23.60;46.30
80238;DHT22;69544;42.138;24.742;2023-05-29T10:54:12;23.60;46.30
80238;DHT22;69544;42.138;24.742;2023-05-29T10:56:45;23.60;46.30
80238;DHT22;69544;42.138;24.742;2023-05-29T10:59:17;23.60;46.20
80238;DHT22;69544;42.138;24.742;2023-05-29T11:01:43;23.60;46.20
80238;DHT22;69544;42.138;24.742;2023-05-29T11:06:41;23.60;46.10
80238;DHT22;69544;42.138;24.742;2023-05-29T11:14:56;23.70;46.00
80238;DHT22;69544;42.138;24.742;2023-05-29T11:19:56;23.70;45.90
80238;DHT22;69544;42.138;24.742;2023-05-29T11:22:27;23.70;45.70
80238;DHT22;69544;42.138;24.742;2023-05-29T11:24:55;23.70;45.70
80238;DHT22;69544;42.138;24.742;2023-05-29T11:27:23;23.80;45.60
80238;DHT22;69544;42.138;24.742;2023-05-29T11:29:52;23.80;45.50
80238;DHT22;69544;42.138;24.742;2023-05-29T11:32:21;23.80;45.40
80238;DHT22;69544;42.138;24.742;2023-05-29T11:34:50;23.80;45.30
80238;DHT22;69544;42.138;24.742;2023-05-29T11:37:17;23.90;45.30
80238;DHT22;69544;42.138;24.742;2023-05-29T11:39:43;23.90;45.30
80238;DHT22;69544;42.138;24.742;2023-05-29T11:42:09;23.90;45.30
80238;DHT22;69544;42.138;24.742;2023-05-29T11:44:34;23.90;45.20
80238;DHT22;69544;42.138;24.742;2023-05-29T11:47:06;23.90;45.20
80238;DHT22;69544;42.138;24.742;2023-05-29T11:49:34;23.90;45.10
80238;DHT22;69544;42.138;24.742;2023-05-29T11:52:10;23.90;45.20
80238;DHT22;69544;42.138;24.742;2023-05-29T11:54:36;23.90;45.20
80238;DHT22;69544;42.138;24.742;2023-05-29T11:57:02;23.90;45.10
80238;DHT22;69544;42.138;24.742;2023-05-29T11:59:31;23.90;45.10
80238;DHT22;69544;42.138;24.742;2023-05-29T12:01:56;23.80;45.20
80238;DHT22;69544;42.138;24.742;2023-05-29T12:04:22;23.90;45.20
80238;DHT22;69544;42.138;24.742;2023-05-29T12:06:48;23.90;45.30
80238;DHT22;69544;42.138;24.742;2023-05-29T12:09:26;23.80;45.20
80238;DHT22;69544;42.138;24.742;2023-05-29T12:11:54;23.90;45.20
80238;DHT22;69544;42.138;24.742;2023-05-29T12:14:20;23.90;45.10
80238;DHT22;69544;42.138;24.742;2023-05-29T12:16:46;23.90;45.10
80238;DHT22;69544;42.138;24.742;2023-05-29T12:19:12;23.90;45.10
80238;DHT22;69544;42.138;24.742;2023-05-29T12:21:41;23.90;45.10
80238;DHT22;69544;42.138;24.742;2023-05-29T12:24:09;24.00;45.10
80238;DHT22;69544;42.138;24.742;2023-05-29T12:26:35;23.90;44.90
80238;DHT22;69544;42.138;24.742;2023-05-29T12:29:03;24.00;44.90
80238;DHT22;69544;42.138;24.742;2023-05-29T12:31:30;24.00;44.90
80238;DHT22;69544;42.138;24.742;2023-05-29T12:34:01;24.00;44.80
80238;DHT22;69544;42.138;24.742;2023-05-29T12:36:27;24.00;44.80
80238;DHT22;69544;42.138;24.742;2023-05-29T12:38:53;24.00;44.80
80238;DHT22;69544;42.138;24.742;2023-05-29T12:41:29;24.00;44.80
80238;DHT22;69544;42.138;24.742;2023-05-29T12:43:57;24.00;44.80
80238;DHT22;69544;42.138;24.742;2023-05-29T12:46:26;24.00;44.80
80238;DHT22;69544;42.138;24.742;2023-05-29T12:48:55;23.90;44.70
80238;DHT22;69544;42.138;24.742;2023-05-29T12:51:26;23.90;44.80
80238;DHT22;69544;42.138;24.742;2023-05-29T12:53:52;23.90;44.80
80238;DHT22;69544;42.138;24.742;2023-05-29T12:56:21;23.90;44.70
80238;DHT22;69544;42.138;24.742;2023-05-29T12:58:48;23.90;44.80
80238;DHT22;69544;42.138;24.742;2023-05-29T13:01:14;23.90;44.80
80238;DHT22;69544;42.138;24.742;2023-05-29T13:03:40;24.00;44.80
80238;DHT22;69544;42.138;24.742;2023-05-29T13:06:06;23.90;44.70
80238;DHT22;69544;42.138;24.742;2023-05-29T13:08:32;23.90;44.70
80238;DHT22;69544;42.138;24.742;2023-05-29T13:10:58;23.90;44.70
80238;DHT22;69544;42.138;24.742;2023-05-29T13:13:23;23.90;44.80
80238;DHT22;69544;42.138;24.742;2023-05-29T13:15:49;23.90;44.80
80238;DHT22;69544;42.138;24.742;2023-05-29T13:18:15;23.90;44.80
80238;DHT22;69544;42.138;24.742;2023-05-29T13:20:41;23.90;44.80
80238;DHT22;69544;42.138;24.742;2023-05-29T13:23:06;23.80;44.90
80238;DHT22;69544;42.138;24.742;2023-05-29T13:25:34;23.80;44.90
80238;DHT22;69544;42.138;24.742;2023-05-29T13:28:00;23.80;44.90
80238;DHT22;69544;42.138;24.742;2023-05-29T13:30:25;23.80;45.20
80238;DHT22;69544;42.138;24.742;2023-05-29T13:32:52;23.80;45.30
80238;DHT22;69544;42.138;24.742;2023-05-29T13:35:19;23.80;45.20
80238;DHT22;69544;42.138;24.742;2023-05-29T13:37:45;23.90;45.30
80238;DHT22;69544;42.138;24.742;2023-05-29T13:40:11;23.90;45.30
80238;DHT22;69544;42.138;24.742;2023-05-29T13:42:38;23.90;45.30
80238;DHT22;69544;42.138;24.742;2023-05-29T13:45:05;23.90;45.30
80238;DHT22;69544;42.138;24.742;2023-05-29T13:47:32;23.90;45.30
80238;DHT22;69544;42.138;24.742;2023-05-29T13:49:58;24.00;45.50
80238;DHT22;69544;42.138;24.742;2023-05-29T13:52:24;24.00;45.50
80238;DHT22;69544;42.138;24.742;2023-05-29T13:54:50;24.10;45.60
80238;DHT22;69544;42.138;24.742;2023-05-29T13:57:16;24.10;45.50
80238;DHT22;69544;42.138;24.742;2023-05-29T13:59:41;24.20;45.50
80238;DHT22;69544;42.138;24.742;2023-05-29T14:02:07;24.30;45.50
80238;DHT22;69544;42.138;24.742;2023-05-29T14:04:33;24.40;45.40
80238;DHT22;69544;42.138;24.742;2023-05-29T14:07:00;24.40;45.40
80238;DHT22;69544;42.138;24.742;2023-05-29T14:09:26;24.50;45.20
80238;DHT22;69544;42.138;24.742;2023-05-29T14:11:55;24.50;45.00
80238;DHT22;69544;42.138;24.742;2023-05-29T14:14:21;24.50;45.00
80238;DHT22;69544;42.138;24.742;2023-05-29T14:16:49;24.50;45.00
80238;DHT22;69544;42.138;24.742;2023-05-29T14:19:15;24.50;45.00
80238;DHT22;69544;42.138;24.742;2023-05-29T14:21:40;24.50;45.10
80238;DHT22;69544;42.138;24.742;2023-05-29T14:24:06;24.50;45.00
80238;DHT22;69544;42.138;24.742;2023-05-29T14:26:33;24.50;45.20
80238;DHT22;69544;42.138;24.742;2023-05-29T14:28:58;24.50;45.30
80238;DHT22;69544;42.138;24.742;2023-05-29T14:31:24;24.50;45.20
80238;DHT22;69544;42.138;24.742;2023-05-29T14:33:50;24.50;45.30
80238;DHT22;69544;42.138;24.742;2023-05-29T14:36:15;24.50;45.40
80238;DHT22;69544;42.138;24.742;2023-05-29T14:38:41;24.50;45.40
80238;DHT22;69544;42.138;24.742;2023-05-29T14:41:09;24.50;45.40
80238;DHT22;69544;42.138;24.742;2023-05-29T14:43:35;24.50;45.60
80238;DHT22;69544;42.138;24.742;2023-05-29T14:46:00;24.50;45.60
80238;DHT22;69544;42.138;24.742;2023-05-29T14:48:26;24.50;45.50
80238;DHT22;69544;42.138;24.742;2023-05-29T14:50:52;24.50;45.40
80238;DHT22;69544;42.138;24.742;2023-05-29T14:53:17;24.50;45.40
80238;DHT22;69544;42.138;24.742;2023-05-29T14:55:44;24.50;45.30
80238;DHT22;69544;42.138;24.742;2023-05-29T14:58:09;24.50;45.20
80238;DHT22;69544;42.138;24.742;2023-05-29T15:00:35;24.50;45.20
80238;DHT22;69544;42.138;24.742;2023-05-29T15:03:01;24.50;45.00
80238;DHT22;69544;42.138;24.742;2023-05-29T15:05:28;24.50;45.00
80238;DHT22;69544;42.138;24.742;2023-05-29T15:07:54;24.50;45.00
80238;DHT22;69544;42.138;24.742;2023-05-29T15:10:26;24.50;45.00
80238;DHT22;69544;42.138;24.742;2023-05-29T15:12:52;24.40;45.00
80238;DHT22;69544;42.138;24.742;2023-05-29T15:15:23;24.40;45.00
80238;DHT22;69544;42.138;24.742;2023-05-29T15:17:49;24.40;45.10
80238;DHT22;69544;42.138;24.742;2023-05-29T15:20:19;24.30;45.00
80238;DHT22;69544;42.138;24.742;2023-05-29T15:22:45;24.30;45.10
80238;DHT22;69544;42.138;24.742;2023-05-29T15:25:11;24.30;45.20
80238;DHT22;69544;42.138;24.742;2023-05-29T15:27:37;24.30;45.20
80238;DHT22;69544;42.138;24.742;2023-05-29T15:30:29;24.20;45.20
80238;DHT22;69544;42.138;24.742;2023-05-29T15:32:54;24.20;45.30
80238;DHT22;69544;42.138;24.742;2023-05-29T15:35:20;24.10;45.30
80238;DHT22;69544;42.138;24.742;2023-05-29T15:37:46;24.10;45.40
80238;DHT22;69544;42.138;24.742;2023-05-29T15:40:11;24.10;45.40
80238;DHT22;69544;42.138;24.742;2023-05-29T15:42:37;24.10;45.40
80238;DHT22;69544;42.138;24.742;2023-05-29T15:45:04;24.00;45.40
80238;DHT22;69544;42.138;24.742;2023-05-29T15:47:30;24.00;45.50
80238;DHT22;69544;42.138;24.742;2023-05-29T15:49:56;24.00;45.50